createdAt,value
2022-08-22T00:00:37.723Z,8.65
2022-08-22T00:03:02.140Z,1.30
2022-08-22T00:03:07.953Z,3.50
2022-08-22T00:05:57.826Z,7.13
2022-08-22T00:08:46.024Z,8.88
2022-08-22T00:11:12.851Z,9.30
2022-08-22T00:13:39.485Z,10.57
2022-08-22T00:16:16.478Z,9.40
2022-08-22T00:19:21.095Z,9.60
2022-08-22T00:22:18.523Z,7.60
2022-08-22T00:24:47.908Z,7.50
2022-08-22T00:27:23.689Z,7.70
2022-08-22T00:30:11.251Z,7.07
2022-08-22T00:32:50.880Z,7.55
2022-08-22T00:38:19.321Z,14.88
2022-08-22T00:41:01.618Z,18.20
2022-08-22T00:43:41.513Z,21.13
2022-08-22T00:46:32.348Z,24.80
2022-08-22T00:49:14.576Z,17.05
2022-08-22T00:52:14.343Z,18.27
2022-08-22T00:54:47.466Z,19.45
2022-08-22T00:57:14.070Z,24.33
2022-08-22T01:00:01.767Z,20.30
2022-08-22T01:02:51.845Z,15.82
2022-08-22T01:05:41.741Z,18.73
2022-08-22T01:08:32.478Z,17.13
2022-08-22T01:11:16.644Z,21.45
2022-08-22T01:13:46.390Z,16.02
2022-08-22T01:19:21.890Z,17.60
2022-08-22T01:22:26.439Z,19.00
2022-08-22T01:25:14.668Z,15.68
2022-08-22T01:28:25.432Z,11.65
2022-08-22T01:34:04.514Z,9.40
2022-08-22T01:36:46.608Z,9.80
2022-08-22T01:39:31.510Z,10.60
2022-08-22T01:42:41.991Z,10.18
2022-08-22T01:45:14.410Z,9.10
2022-08-22T01:47:59.148Z,11.32
2022-08-22T01:50:35.532Z,9.13
2022-08-22T01:53:10.996Z,10.70
2022-08-22T01:55:54.624Z,12.07
2022-08-22T01:58:28.518Z,12.20
2022-08-22T02:01:08.682Z,11.45
2022-08-22T02:03:51.908Z,13.93
2022-08-22T02:06:36.074Z,16.27
2022-08-22T02:09:09.028Z,13.98
2022-08-22T02:11:45.044Z,17.65
2022-08-22T02:14:21.447Z,16.17
2022-08-22T02:16:56.207Z,17.92
2022-08-22T02:19:39.960Z,19.20
2022-08-22T02:22:32.993Z,15.55
2022-08-22T02:25:13.713Z,15.30
2022-08-22T02:28:01.216Z,15.68
2022-08-22T02:30:44.681Z,14.82
2022-08-22T02:33:32.649Z,17.05
2022-08-22T02:36:14.441Z,17.38
2022-08-22T02:38:52.898Z,15.70
2022-08-22T02:41:31.852Z,16.80
2022-08-22T02:44:26.590Z,12.85
2022-08-22T02:47:06.227Z,12.15
2022-08-22T02:52:12.963Z,12.93
2022-08-22T02:55:06.654Z,12.82
2022-08-22T02:57:45.216Z,12.02
2022-08-22T03:00:33.002Z,13.40
2022-08-22T03:02:59.976Z,13.27
2022-08-22T03:05:38.746Z,13.60
2022-08-22T03:08:08.164Z,14.50
2022-08-22T03:10:44.277Z,13.18
2022-08-22T03:13:31.239Z,13.93
2022-08-22T03:16:35.147Z,12.85
2022-08-22T03:19:31.955Z,13.32
2022-08-22T03:22:06.405Z,13.15
2022-08-22T03:24:51.591Z,14.65
2022-08-22T03:27:32.846Z,14.23
2022-08-22T03:30:11.305Z,13.85
2022-08-22T03:32:48.781Z,14.77
2022-08-22T03:35:41.510Z,14.32
2022-08-22T03:38:39.902Z,14.57
2022-08-22T03:41:12.572Z,15.05
2022-08-22T03:43:51.764Z,14.10
2022-08-22T03:46:57.188Z,12.82
2022-08-22T03:50:01.154Z,13.50
2022-08-22T03:53:02.371Z,11.43
2022-08-22T03:55:47.527Z,12.48
2022-08-22T03:58:19.183Z,12.43
2022-08-22T04:01:22.209Z,12.25
2022-08-22T04:04:10.559Z,12.90
2022-08-22T04:07:28.384Z,11.20
2022-08-22T04:10:03.401Z,11.73
2022-08-22T04:12:33.103Z,11.85
2022-08-22T04:18:24.157Z,12.38
2022-08-22T04:20:56.792Z,14.02
2022-08-22T04:23:40.400Z,13.77
2022-08-22T04:26:21.363Z,14.80
2022-08-22T04:28:53.739Z,13.95
2022-08-22T04:31:32.295Z,14.40
2022-08-22T04:34:10.819Z,15.23
2022-08-22T04:36:50.156Z,18.25
2022-08-22T04:39:40.198Z,16.85
2022-08-22T04:42:32.375Z,17.17
2022-08-22T04:45:34.583Z,18.85
2022-08-22T04:48:10.185Z,15.98
2022-08-22T04:50:43.122Z,16.30
2022-08-22T04:54:04.475Z,18.30
2022-08-22T04:56:55.731Z,17.95
2022-08-22T04:59:25.176Z,18.70
2022-08-22T05:01:58.682Z,16.70
2022-08-22T05:04:33.129Z,15.90
2022-08-22T05:07:13.000Z,16.17
2022-08-22T05:09:45.262Z,18.05
2022-08-22T05:12:16.399Z,19.40
2022-08-22T05:14:51.908Z,17.85
2022-08-22T05:17:29.190Z,19.15
2022-08-22T05:20:08.032Z,18.45
2022-08-22T05:22:36.823Z,16.95
2022-08-22T05:25:11.081Z,19.63
2022-08-22T05:27:40.809Z,20.02
2022-08-22T05:30:13.267Z,19.70
2022-08-22T05:32:52.330Z,21.48
2022-08-22T05:35:23.375Z,20.65
2022-08-22T05:37:55.262Z,21.33
2022-08-22T05:40:33.448Z,18.77
2022-08-22T05:43:00.218Z,21.60
2022-08-22T05:45:28.376Z,22.52
2022-08-22T05:48:03.288Z,21.42
2022-08-22T05:50:41.358Z,22.00
2022-08-22T05:53:14.490Z,21.08
2022-08-22T05:55:59.043Z,23.52
2022-08-22T05:58:28.647Z,21.02
2022-08-22T06:01:09.906Z,21.77
2022-08-22T06:03:57.116Z,21.52
2022-08-22T06:06:27.498Z,23.25
2022-08-22T06:09:13.027Z,21.45
2022-08-22T06:11:52.171Z,26.80
2022-08-22T06:14:42.358Z,22.80
2022-08-22T06:17:19.405Z,20.75
2022-08-22T06:19:50.193Z,23.45
2022-08-22T06:22:25.834Z,22.85
2022-08-22T06:24:57.864Z,22.17
2022-08-22T06:27:31.171Z,24.20
2022-08-22T06:30:01.655Z,16.85
2022-08-22T06:32:58.908Z,23.75
2022-08-22T06:35:52.297Z,24.30
2022-08-22T06:38:21.624Z,24.83
2022-08-22T06:40:54.430Z,23.08
2022-08-22T06:43:24.756Z,24.13
2022-08-22T06:45:53.358Z,22.25
2022-08-22T06:48:23.773Z,23.00
2022-08-22T06:50:56.178Z,22.33
2022-08-22T06:53:35.966Z,21.52
2022-08-22T06:56:07.118Z,23.70
2022-08-22T06:58:41.689Z,23.05
2022-08-22T07:01:14.471Z,24.08
2022-08-22T07:03:47.677Z,24.08
2022-08-22T07:06:22.963Z,24.08
2022-08-22T07:08:53.993Z,24.30
2022-08-22T07:11:28.081Z,23.40
2022-08-22T07:14:14.093Z,22.50
2022-08-22T07:16:44.854Z,23.80
2022-08-22T07:19:35.331Z,22.27
2022-08-22T07:22:16.157Z,21.27
2022-08-22T07:24:50.995Z,20.33
2022-08-22T07:27:45.492Z,18.88
2022-08-22T07:30:27.899Z,19.08
2022-08-22T07:35:59.176Z,18.67
2022-08-22T07:38:42.679Z,17.48
2022-08-22T07:41:23.793Z,16.30
2022-08-22T07:43:56.469Z,16.17
2022-08-22T07:46:32.950Z,16.58
2022-08-22T07:49:14.359Z,19.25
2022-08-22T07:51:52.156Z,15.50
2022-08-22T07:55:00.582Z,17.70
2022-08-22T07:57:36.246Z,17.70
2022-08-22T08:00:11.434Z,18.90
2022-08-22T08:02:45.141Z,19.17
2022-08-22T08:05:13.841Z,18.33
2022-08-22T08:07:48.292Z,17.65
2022-08-22T08:10:24.355Z,16.33
2022-08-22T08:13:02.172Z,16.27
2022-08-22T08:15:33.871Z,18.80
2022-08-22T08:18:06.175Z,17.85
2022-08-22T08:20:37.003Z,17.38
2022-08-22T08:23:10.287Z,16.10
2022-08-22T08:25:53.756Z,21.33
2022-08-22T08:28:33.960Z,21.05
2022-08-22T08:31:16.155Z,21.45
2022-08-22T08:33:46.984Z,19.05
2022-08-22T08:36:34.713Z,22.58
2022-08-22T08:39:17.139Z,21.67
2022-08-22T08:41:54.303Z,19.50
2022-08-22T08:44:23.657Z,20.70
2022-08-22T08:47:08.247Z,20.48
2022-08-22T08:49:56.884Z,19.45
2022-08-22T08:52:32.515Z,21.03
2022-08-22T08:55:24.678Z,20.33
2022-08-22T08:58:03.349Z,20.45
2022-08-22T09:00:46.066Z,20.23
2022-08-22T09:03:48.453Z,19.95
2022-08-22T09:06:44.071Z,20.50
2022-08-22T09:09:56.539Z,20.52
2022-08-22T09:12:36.554Z,18.92
2022-08-22T09:15:58.613Z,20.30
2022-08-22T09:18:51.113Z,19.05
2022-08-22T09:21:50.603Z,19.88
2022-08-22T09:25:06.066Z,19.25
2022-08-22T09:27:45.937Z,20.70
2022-08-22T09:30:18.538Z,20.70
2022-08-22T09:33:04.209Z,20.23
2022-08-22T09:35:33.834Z,22.83
2022-08-22T09:38:38.120Z,19.95
2022-08-22T09:41:14.943Z,19.35
2022-08-22T09:43:59.631Z,19.15
2022-08-22T09:46:37.022Z,18.05
2022-08-22T09:49:36.088Z,19.70
2022-08-22T09:52:14.403Z,21.27
2022-08-22T09:54:57.185Z,19.85
2022-08-22T09:57:52.680Z,19.73
2022-08-22T10:00:27.834Z,21.88
2022-08-22T10:03:19.690Z,22.95
2022-08-22T10:05:57.683Z,20.73
2022-08-22T10:08:45.930Z,21.30
2022-08-22T10:11:19.582Z,20.92
2022-08-22T10:14:05.343Z,22.98
2022-08-22T10:16:56.707Z,21.35
2022-08-22T10:19:33.833Z,21.83
2022-08-22T10:22:22.941Z,21.10
2022-08-22T10:25:28.604Z,21.25
2022-08-22T10:28:14.359Z,21.10
2022-08-22T10:30:47.899Z,24.65
2022-08-22T10:33:22.787Z,23.05
2022-08-22T10:36:20.031Z,22.25
2022-08-22T10:38:53.426Z,18.90
2022-08-22T10:41:38.807Z,24.40
2022-08-22T10:44:24.608Z,19.83
2022-08-22T10:47:11.994Z,21.60
2022-08-22T10:50:00.964Z,19.52
2022-08-22T10:52:32.150Z,21.25
2022-08-22T10:55:10.074Z,21.15
2022-08-22T10:58:10.749Z,19.98
2022-08-22T11:00:56.973Z,20.70
2022-08-22T11:03:41.773Z,21.15
2022-08-22T11:06:24.937Z,19.33
2022-08-22T11:08:57.918Z,19.90
2022-08-22T11:11:36.236Z,20.75
2022-08-22T11:14:22.262Z,22.35
2022-08-22T11:17:31.076Z,20.95
2022-08-22T11:20:03.708Z,20.20
2022-08-22T11:22:48.208Z,25.10
2022-08-22T11:25:38.443Z,30.77
2022-08-22T11:28:36.446Z,21.35
2022-08-22T11:31:08.777Z,21.35
2022-08-22T11:33:49.177Z,23.55
2022-08-22T11:36:26.217Z,21.50
2022-08-22T11:39:18.015Z,24.92
2022-08-22T11:41:53.532Z,29.65
2022-08-22T11:44:50.170Z,27.02
2022-08-22T11:47:28.138Z,23.95
2022-08-22T11:50:23.764Z,21.45
2022-08-22T11:53:16.028Z,31.88
2022-08-22T11:56:00.131Z,27.80
2022-08-22T11:59:04.430Z,28.65
2022-08-22T12:01:59.534Z,24.17
2022-08-22T12:04:53.870Z,29.65
2022-08-22T12:07:39.631Z,26.65
2022-08-22T12:10:19.834Z,24.98
2022-08-22T12:13:08.668Z,21.90
2022-08-22T12:15:48.963Z,20.33
2022-08-22T12:18:39.314Z,23.33
2022-08-22T12:21:10.320Z,19.60
2022-08-22T12:24:11.168Z,20.23
2022-08-22T12:27:00.666Z,21.73
2022-08-22T12:29:44.724Z,21.48
2022-08-22T12:32:50.103Z,22.73
2022-08-22T12:35:50.722Z,35.33
2022-08-22T12:38:28.390Z,21.10
2022-08-22T12:41:37.471Z,27.30
2022-08-22T12:44:22.898Z,24.88
2022-08-22T12:47:03.165Z,25.00
2022-08-22T12:49:56.710Z,26.70
2022-08-22T12:52:52.530Z,26.35
2022-08-22T12:55:45.900Z,22.13
2022-08-22T12:58:18.936Z,23.02
2022-08-22T13:00:48.339Z,22.15
2022-08-22T13:03:35.785Z,21.88
2022-08-22T13:06:37.819Z,23.48
2022-08-22T13:09:18.702Z,23.58
2022-08-22T13:11:50.431Z,20.08
2022-08-22T13:14:25.695Z,20.15
2022-08-22T13:17:00.908Z,22.98
2022-08-22T13:22:27.464Z,22.42
2022-08-22T13:25:25.960Z,21.73
2022-08-22T13:28:10.135Z,21.10
2022-08-22T13:30:40.145Z,22.10
2022-08-22T13:33:14.735Z,20.30
2022-08-22T13:35:54.158Z,20.85
2022-08-22T13:38:32.789Z,19.13
2022-08-22T13:41:02.804Z,17.20
2022-08-22T13:43:36.050Z,20.05
2022-08-22T13:46:06.669Z,23.65
2022-08-22T13:48:51.204Z,24.55
2022-08-22T13:51:40.277Z,20.85
2022-08-22T13:54:11.259Z,24.48
2022-08-22T13:57:10.962Z,24.20
2022-08-22T14:02:43.477Z,22.23
2022-08-22T14:05:18.882Z,21.15
2022-08-22T14:08:06.644Z,22.15
2022-08-22T14:10:55.054Z,24.98
2022-08-22T14:13:24.231Z,24.60
2022-08-22T14:16:07.293Z,24.20
2022-08-22T14:18:45.634Z,26.17
2022-08-22T14:21:26.134Z,24.85
2022-08-22T14:24:18.998Z,24.52
2022-08-22T14:26:54.082Z,25.08
2022-08-22T14:29:31.870Z,23.25
2022-08-22T14:32:22.559Z,24.48
2022-08-22T14:35:21.477Z,25.55
2022-08-22T14:37:54.410Z,25.40
2022-08-22T14:40:36.841Z,23.25
2022-08-22T14:43:22.564Z,23.25
2022-08-22T14:46:02.154Z,23.63
2022-08-22T14:48:39.338Z,23.92
2022-08-22T14:51:21.214Z,23.73
2022-08-22T14:53:50.211Z,25.27
2022-08-22T14:56:25.686Z,22.52
2022-08-22T14:58:58.238Z,21.88
2022-08-22T15:01:29.696Z,20.85
2022-08-22T15:04:10.516Z,22.35
2022-08-22T15:06:48.113Z,21.80
2022-08-22T15:09:33.627Z,25.10
2022-08-22T15:12:05.793Z,26.13
2022-08-22T15:14:38.361Z,28.33
2022-08-22T15:17:08.997Z,27.33
2022-08-22T15:19:46.420Z,25.63
2022-08-22T15:22:21.544Z,28.48
2022-08-22T15:25:04.445Z,28.13
2022-08-22T15:27:34.986Z,28.92
2022-08-22T15:30:20.684Z,27.27
2022-08-22T15:32:49.193Z,27.70
2022-08-22T15:35:31.652Z,26.27
2022-08-22T15:38:03.091Z,26.95
2022-08-22T15:40:42.089Z,30.20
2022-08-22T15:43:21.880Z,30.17
2022-08-22T15:45:52.471Z,30.20
2022-08-22T15:48:36.711Z,29.77
2022-08-22T15:51:10.745Z,27.73
2022-08-22T15:53:43.824Z,26.35
2022-08-22T15:56:13.339Z,30.88
2022-08-22T15:58:49.530Z,31.23
2022-08-22T16:01:19.167Z,28.80
2022-08-22T16:04:01.330Z,32.90
2022-08-22T16:06:39.897Z,35.05
2022-08-22T16:09:29.726Z,31.60
2022-08-22T16:11:58.930Z,30.63
2022-08-22T16:14:34.367Z,32.55
2022-08-22T16:17:09.442Z,34.67
2022-08-22T16:19:38.314Z,31.33
2022-08-22T16:22:08.195Z,32.60
2022-08-22T16:24:56.539Z,29.85
2022-08-22T16:27:25.917Z,32.37
2022-08-22T16:30:08.173Z,28.13
2022-08-22T16:32:36.100Z,30.17
2022-08-22T16:35:03.240Z,34.78
2022-08-22T16:37:43.038Z,34.58
2022-08-22T16:40:17.279Z,29.17
2022-08-22T16:42:49.175Z,37.83
2022-08-22T16:45:36.642Z,43.47
2022-08-22T16:48:36.750Z,50.38
2022-08-22T16:51:18.612Z,64.47
2022-08-22T16:54:03.805Z,47.72
2022-08-22T16:56:39.952Z,55.50
2022-08-22T16:59:38.579Z,87.80
2022-08-22T17:02:14.184Z,49.60
2022-08-22T17:04:55.550Z,48.33
2022-08-22T17:07:51.740Z,42.15
2022-08-22T17:10:27.058Z,38.45
2022-08-22T17:13:22.344Z,32.60
2022-08-22T17:16:21.048Z,24.90
2022-08-22T17:18:53.597Z,32.67
2022-08-22T17:21:29.561Z,23.25
2022-08-22T17:24:09.152Z,17.85
2022-08-22T17:27:06.202Z,20.55
2022-08-22T17:30:02.644Z,18.05
2022-08-22T17:32:58.288Z,11.45
2022-08-22T17:35:30.534Z,11.07
2022-08-22T17:38:00.080Z,12.27
2022-08-22T17:40:53.234Z,10.20
2022-08-22T17:43:52.302Z,9.68
2022-08-22T17:46:37.690Z,9.85
2022-08-22T17:49:41.318Z,8.90
2022-08-22T17:52:16.048Z,8.45
2022-08-22T17:54:57.231Z,9.63
2022-08-22T17:57:47.862Z,8.93
2022-08-22T18:00:31.512Z,8.43
2022-08-22T18:03:07.153Z,10.77
2022-08-22T18:05:48.894Z,8.50
2022-08-22T18:08:38.290Z,9.45
2022-08-22T18:11:24.883Z,9.02
2022-08-22T18:13:57.302Z,10.05
2022-08-22T18:16:36.090Z,9.20
2022-08-22T18:19:24.041Z,8.95
2022-08-22T18:22:06.822Z,8.88
2022-08-22T18:24:37.135Z,10.18
2022-08-22T18:27:41.159Z,10.65
2022-08-22T18:30:13.647Z,11.82
2022-08-22T18:32:55.695Z,9.82
2022-08-22T18:35:32.923Z,10.43
2022-08-22T18:38:19.604Z,11.52
2022-08-22T18:40:54.431Z,10.48
2022-08-22T18:43:36.278Z,10.40
2022-08-22T18:46:25.299Z,10.55
2022-08-22T18:49:14.033Z,10.85
2022-08-22T18:51:41.673Z,11.30
2022-08-22T18:54:08.389Z,11.25
2022-08-22T18:57:08.469Z,10.07
2022-08-22T18:59:35.118Z,10.77
2022-08-22T19:02:41.062Z,11.32
2022-08-22T19:05:22.996Z,9.32
2022-08-22T19:08:10.761Z,10.00
2022-08-22T19:10:54.435Z,10.77
2022-08-22T19:13:39.235Z,10.20
2022-08-22T19:16:33.905Z,10.18
2022-08-22T19:19:07.969Z,9.98
2022-08-22T19:22:19.342Z,11.65
2022-08-22T19:25:12.623Z,11.45
2022-08-22T19:27:57.029Z,11.13
2022-08-22T19:30:39.473Z,11.45
2022-08-22T19:33:11.501Z,14.15
2022-08-22T19:35:50.967Z,23.30
2022-08-22T19:41:03.377Z,13.35
2022-08-22T19:43:35.655Z,14.23
2022-08-22T19:46:12.077Z,15.60
2022-08-22T19:48:50.416Z,11.85
2022-08-22T19:51:20.436Z,11.90
2022-08-22T19:54:02.313Z,15.57
2022-08-22T19:56:47.413Z,15.38
2022-08-22T20:00:00.324Z,12.70
2022-08-22T20:02:51.633Z,14.38
2022-08-22T20:05:53.652Z,16.10
2022-08-22T20:08:54.774Z,15.52
2022-08-22T20:12:08.490Z,17.52
2022-08-22T20:14:40.210Z,17.15
2022-08-22T20:17:36.838Z,18.05
2022-08-22T20:20:17.824Z,17.08
2022-08-22T20:23:03.525Z,17.13
2022-08-22T20:25:45.713Z,18.80
2022-08-22T20:28:30.158Z,18.15
2022-08-22T20:31:00.894Z,19.42
2022-08-22T20:33:32.515Z,19.85
2022-08-22T20:36:05.268Z,20.02
2022-08-22T20:38:55.396Z,21.05
2022-08-22T20:41:29.076Z,19.50
2022-08-22T20:44:14.519Z,20.08
2022-08-22T20:46:55.666Z,19.77
2022-08-22T20:49:42.142Z,18.55
2022-08-22T20:52:21.552Z,19.15
2022-08-22T20:57:27.530Z,17.88
2022-08-22T20:59:58.194Z,19.17
2022-08-22T21:02:30.319Z,17.77
2022-08-22T21:05:22.514Z,18.38
2022-08-22T21:08:06.932Z,21.42
2022-08-22T21:10:55.229Z,21.25
2022-08-22T21:13:23.499Z,20.13
2022-08-22T21:15:56.367Z,17.10
2022-08-22T21:18:36.732Z,16.52
2022-08-22T21:21:08.021Z,14.40
2022-08-22T21:23:43.067Z,17.55
2022-08-22T21:26:20.955Z,18.27
2022-08-22T21:29:14.327Z,13.00
2022-08-22T21:31:50.554Z,12.45
2022-08-22T21:34:34.180Z,13.90
2022-08-22T21:37:11.689Z,12.63
2022-08-22T21:39:51.374Z,13.18
2022-08-22T21:42:40.043Z,12.52
2022-08-22T21:45:09.515Z,11.70
2022-08-22T21:47:40.066Z,12.57
2022-08-22T21:50:23.527Z,13.48
2022-08-22T21:52:56.366Z,13.15
2022-08-22T21:55:29.311Z,14.32
2022-08-22T21:58:31.005Z,14.13
2022-08-22T22:01:24.847Z,14.90
2022-08-22T22:03:52.118Z,12.00
2022-08-22T22:06:18.808Z,12.27
2022-08-22T22:08:46.168Z,14.23
2022-08-22T22:11:14.868Z,13.80
2022-08-22T22:13:43.092Z,13.10
2022-08-22T22:16:12.771Z,13.77
2022-08-22T22:18:39.514Z,12.60
2022-08-22T22:21:06.369Z,13.40
2022-08-22T22:23:33.061Z,13.20
2022-08-22T22:26:02.707Z,12.48
2022-08-22T22:28:37.499Z,11.90
2022-08-22T22:31:05.213Z,11.15
2022-08-22T22:33:41.016Z,11.20
2022-08-22T22:36:16.219Z,9.45
2022-08-22T22:38:43.382Z,9.55
2022-08-22T22:41:11.423Z,9.65
2022-08-22T22:43:39.216Z,9.23
2022-08-22T22:46:06.526Z,9.95
2022-08-22T22:48:33.773Z,9.52
2022-08-22T22:51:08.662Z,10.02
2022-08-22T22:53:38.387Z,10.23
2022-08-22T22:56:11.617Z,9.57
2022-08-22T22:58:38.576Z,9.20
2022-08-22T23:01:10.131Z,8.85
2022-08-22T23:03:37.003Z,8.23
2022-08-22T23:06:03.773Z,8.32
2022-08-22T23:08:30.790Z,8.63
2022-08-22T23:10:58.697Z,8.18
2022-08-22T23:13:26.631Z,8.27
2022-08-22T23:15:53.637Z,9.00
2022-08-22T23:18:20.924Z,10.02
2022-08-22T23:20:53.947Z,8.30
2022-08-22T23:23:20.613Z,7.78
2022-08-22T23:25:47.544Z,7.93
2022-08-22T23:28:14.237Z,7.30
2022-08-22T23:30:42.160Z,7.55
2022-08-22T23:33:08.852Z,6.95
2022-08-22T23:35:35.538Z,6.75
2022-08-22T23:38:02.278Z,6.72
2022-08-22T23:40:29.044Z,6.80
2022-08-22T23:42:57.044Z,7.35
2022-08-22T23:45:24.662Z,7.43
2022-08-22T23:47:51.338Z,7.57
2022-08-22T23:50:18.040Z,8.77
2022-08-22T23:52:45.647Z,7.75
2022-08-22T23:55:14.106Z,7.70
2022-08-22T23:57:40.772Z,8.10
